Rutherford College, North Carolina
Current Conditions -  °F | °C
As of 11:15 AM on Thursday 23 Oct 2014 (Local Time) from KMRN Reporting Station
Clear Clear  
Wind Chill: 58°   Ceiling: Unl
Heat Index: 58°   Visibility: 10mi
Dew Point: 37°   Wind: 5mph
Humidity: 47%   Direction: 290°WNW
Pressure: 30.14"   Gusts: NA
Location:  35.75°N, 81.52°W
Report Text: KMRN 231515Z AUTO 29004KT 10SM CLR 14/03 A3014 RMK AO2 T01430030
Loading
Personal Weather Stations






























Interactive Weather Map
Tropical Storm Tracking
New forecast layout! Learn more

10-Day Weather Forecast

Advertisements
Track Severe Weather on mobile